SVPL1: Red River at Shreveport Site 2

                                SHEF ID:       SVPL1     Red River at Shreveport Site 2
STATION TYPE:

PRECIP STAGE RIV-FLOW VOLTAGE
in ft cfs volt
Ccp-Rev Ccp-Rev Ccp-Rev Ccp-Rev
(America/Chicago)
06/30 00:00 0.00 23.22 63760 12.83
06/30 01:00 0.00 23.17 63360 12.81
06/30 02:00 0.00 23.09 62720 12.81
06/30 03:00 0.00 23.09 62720 12.80
06/30 04:00 0.00 22.97 61820 12.78
06/30 05:00 0.00 22.96 61760 12.77
06/30 06:00 0.00 22.86 61160 12.77
06/30 07:00 0.00 22.84 61040 13.01
06/30 08:00 0.00 22.76 60560 13.36
06/30 09:00 0.00 22.80 60800 13.07
06/30 10:00 0.00 22.77 60620 13.07
06/30 11:00 0.00 22.71 60260 13.06
06/30 12:00 0.00 22.63 59780 13.09
06/30 13:00 0.00 22.54 59240 13.09
06/30 14:00 0.00 22.54 59240 13.09
06/30 15:00 0.00 22.51 59060 13.07
06/30 16:00 0.00 22.45 58700 13.07
06/30 17:00 0.00 22.35 58100 13.09
06/30 18:00 0.00 22.39 58340 13.06
06/30 19:00 0.00 22.33 57980 12.92
06/30 20:00 0.00 22.30 57800 12.88
06/30 21:00 0.00 22.27 57620 12.86
06/30 22:00 0.00 22.22 57320 12.85
06/30 23:00 0.00 22.27 57620 12.86
Data processed at Wed 01Jul2026 04:24 GMT

NOTICE: If you are parsing this page

Please convert to using our Data API. Starting early 2026 we will be migrating to: https://water.usace.army.mil with modern pages rendered in JavaScript. When this migration completes you will no longer be able to scrape this page! CWMSDataAPI (CDA)

Timeseries IDs (TSIDs)

TSIDs used from left to right in the data table
SHRE.Precip-Inc.Total.1Hour.1Hour.Ccp-Rev
SHRE.Stage.Inst.1Hour.0.Ccp-Rev
SHRE.Flow.Inst.1Hour.0.Ccp-Rev
SHRE.Volt-Battery.Inst.1Hour.0.Ccp-Rev

                            

All information presented herein is the property of the government of the United States of America and may be revised or deleted at any time without prior notice. Dissemination of this information without the expressed written consent of the Public Affairs Office, Tulsa District U.S. Army Corps of Engineers is strictly prohibited. These data are gathered electronically and, as presented, have NOT undergone any form of quality control. These data are NOT guaranteed to be valid or correct.